Sherwood Valley Rancheria, California
Current Conditions -  °F | °C
As of 5:56 PM on Monday 24 Nov 2014 (Local Time) from KUKI Reporting Station
Clear Clear  
Wind Chill: 54°   Ceiling: Unl
Heat Index: 54°   Visibility: 9mi
Dew Point: 46°   Wind: 0mph
Humidity: 75%   Direction: NA
Pressure: 30.36"   Gusts: NA
Location:  39.4588°N, 123.715°W
Report Text: KUKI 250156Z AUTO 00000KT 9SM CLR 12/08 A3036 RMK AO2 SLP280 T01220078
Loading
Personal Weather Stations






























Interactive Weather Map New forecast layout! Learn more

10-Day Weather Forecast

Advertisements
Track Severe Weather on mobile